Time;durP1;ratioP1;P1;durP2;ratioP2;P2;SDS_P1;SDS_P2;PMS_P1;PMS_P2;Temp;Humidity;BMP_temperature;BMP_pressure;BME280_temperature;BME280_humidity;BME280_pressure;Samples;Min_cycle;Max_cycle;Signal;HPM_P1;HPM_P2
2024/01/06 00:01:45;;;;;;;18.90;8.85;;;;;;;-1.33;100.00;100019.41;7339918;19;20196;-43
2024/01/06 00:04:17;;;;;;;11.52;5.18;;;;;;;-1.32;100.00;100011.03;7320815;19;20200;-44
2024/01/06 00:06:47;;;;;;;7.90;3.58;;;;;;;-1.64;100.00;100004.34;7342083;19;20212;-44
2024/01/06 00:09:16;;;;;;;19.17;7.13;;;;;;;-1.59;100.00;100009.75;7320439;19;20248;-43
2024/01/06 00:11:46;;;;;;;39.67;15.07;;;;;;;-1.71;100.00;100018.16;7341079;19;20213;-43
2024/01/06 00:14:16;;;;;;;9.65;5.00;;;;;;;-1.75;100.00;100017.78;7320685;19;20214;-43
2024/01/06 00:16:45;;;;;;;9.38;4.40;;;;;;;-1.72;100.00;100030.66;7340435;19;20671;-43
2024/01/06 00:19:18;;;;;;;12.38;5.15;;;;;;;-1.82;100.00;100040.06;7320018;19;20206;-42
2024/01/06 00:21:48;;;;;;;11.70;5.22;;;;;;;-1.86;100.00;100047.28;7346826;19;20242;-44
2024/01/06 00:24:17;;;;;;;8.13;4.03;;;;;;;-1.82;100.00;100055.25;7326363;19;20565;-47
2024/01/06 00:26:47;;;;;;;12.77;5.05;;;;;;;-1.80;100.00;100066.34;7350078;19;20190;-44
2024/01/06 00:29:17;;;;;;;12.65;6.60;;;;;;;-1.89;100.00;100073.22;7326477;19;20191;-41
2024/01/06 00:31:46;;;;;;;7.43;3.60;;;;;;;-1.94;100.00;100079.53;7348031;19;20210;-42
2024/01/06 00:34:18;;;;;;;10.13;4.90;;;;;;;-1.89;100.00;100098.50;7327567;19;20755;-44
2024/01/06 00:36:48;;;;;;;7.88;4.70;;;;;;;-1.93;100.00;100099.00;7348180;19;20215;-44
2024/01/06 00:39:18;;;;;;;13.77;6.28;;;;;;;-1.90;100.00;100106.84;7326830;19;20262;-43
2024/01/06 00:41:48;;;;;;;10.25;5.07;;;;;;;-1.87;100.00;100128.97;7348556;19;20225;-43
2024/01/06 00:44:17;;;;;;;9.95;4.43;;;;;;;-1.90;100.00;100137.19;7324747;19;20294;-44
2024/01/06 00:46:47;;;;;;;10.85;5.30;;;;;;;-1.90;100.00;100137.19;7346130;19;20190;-42
2024/01/06 00:49:19;;;;;;;7.95;4.50;;;;;;;-1.94;100.00;100146.16;7326152;19;20648;-45
2024/01/06 00:51:50;;;;;;;10.55;5.25;;;;;;;-1.92;100.00;100159.84;7348147;19;20198;-41
2024/01/06 00:54:20;;;;;;;14.65;5.43;;;;;;;-1.96;100.00;100157.81;7326751;19;20198;-42
2024/01/06 00:56:49;;;;;;;19.08;6.68;;;;;;;-1.95;100.00;100161.22;7347255;19;20194;-44
2024/01/06 00:59:19;;;;;;;10.88;5.40;;;;;;;-1.91;100.00;100170.81;7326399;19;20208;-43
2024/01/06 01:01:48;;;;;;;15.68;6.65;;;;;;;-1.90;100.00;100177.66;7345088;19;20204;-44
2024/01/06 01:04:21;;;;;;;48.08;16.77;;;;;;;-1.91;100.00;100180.94;7326217;19;20202;-43
2024/01/06 01:06:51;;;;;;;17.10;6.10;;;;;;;-1.90;100.00;100183.59;7347057;19;20210;-42
2024/01/06 01:09:20;;;;;;;10.65;4.70;;;;;;;-2.00;100.00;100181.06;7326338;19;20190;-41
2024/01/06 01:11:50;;;;;;;13.05;4.50;;;;;;;-1.95;100.00;100189.91;7345816;19;20190;-43
2024/01/06 01:14:20;;;;;;;11.80;5.55;;;;;;;-1.92;100.00;100199.41;7324874;19;20194;-42
2024/01/06 01:16:50;;;;;;;13.77;5.10;;;;;;;-1.90;100.00;100198.78;7344950;19;20190;-43
2024/01/06 01:19:22;;;;;;;12.00;4.93;;;;;;;-1.91;100.00;100206.22;7324787;19;20580;-43
2024/01/06 01:21:55;;;;;;;23.20;8.80;;;;;;;-2.02;100.00;100217.13;7345401;19;20190;-43
2024/01/06 01:24:25;;;;;;;9.80;4.30;;;;;;;-2.06;100.00;100215.94;7323240;19;20205;-44
2024/01/06 01:26:54;;;;;;;9.85;4.65;;;;;;;-2.00;100.00;100240.88;7347147;19;20206;-45
2024/01/06 01:29:24;;;;;;;14.05;6.05;;;;;;;-2.05;100.00;100243.91;7326184;19;20194;-45
2024/01/06 01:31:53;;;;;;;9.18;4.20;;;;;;;-2.06;100.00;100251.34;7344682;19;20194;-43
2024/01/06 01:34:26;;;;;;;18.73;7.57;;;;;;;-2.04;100.00;100263.38;7325595;19;20562;-44
2024/01/06 01:36:56;;;;;;;10.25;4.47;;;;;;;-2.07;100.00;100260.59;7340040;19;20299;-42
2024/01/06 01:39:25;;;;;;;24.77;9.77;;;;;;;-1.85;100.00;100282.63;7345312;19;20194;-46
2024/01/06 01:41:55;;;;;;;9.60;4.60;;;;;;;-1.84;100.00;100276.78;7346114;19;20576;-44
2024/01/06 01:44:25;;;;;;;9.10;4.80;;;;;;;-1.95;100.00;100267.44;7325470;19;20198;-44
2024/01/06 01:46:55;;;;;;;10.10;4.85;;;;;;;-1.92;100.00;100270.22;7349354;19;20556;-41
2024/01/06 01:49:28;;;;;;;8.95;4.50;;;;;;;-1.90;100.00;100264.53;7329496;19;20198;-42
2024/01/06 01:51:57;;;;;;;10.38;5.70;;;;;;;-1.90;100.00;100258.56;7329489;19;20209;-46
2024/01/06 01:54:27;;;;;;;20.50;8.63;;;;;;;-1.93;100.00;100264.28;7350052;19;20746;-43
2024/01/06 01:56:57;;;;;;;10.75;5.03;;;;;;;-2.01;100.00;100262.75;7330843;19;20190;-43
2024/01/06 01:59:27;;;;;;;9.73;4.95;;;;;;;-1.99;100.00;100257.81;7349606;19;20194;-46
2024/01/06 02:01:56;;;;;;;12.55;5.85;;;;;;;-2.01;100.00;100252.63;7337273;19;20218;-45
2024/01/06 02:04:29;;;;;;;23.38;10.98;;;;;;;-2.09;100.00;100262.13;7350248;19;20314;-42
2024/01/06 02:06:58;;;;;;;14.68;5.80;;;;;;;-2.01;100.00;100266.94;7328860;19;20565;-41
2024/01/06 02:09:29;;;;;;;23.52;8.35;;;;;;;-2.00;100.00;100283.88;7349443;19;20205;-42
2024/01/06 02:11:59;;;;;;;11.15;5.65;;;;;;;-2.00;100.00;100286.41;7329127;19;20236;-42
2024/01/06 02:14:29;;;;;;;33.47;11.93;;;;;;;-1.82;100.00;100307.28;7344811;19;20202;-42
2024/01/06 02:16:59;;;;;;;11.15;5.40;;;;;;;-2.01;100.00;100307.38;7326930;19;20198;-41
2024/01/06 02:19:31;;;;;;;11.52;5.82;;;;;;;-1.96;100.00;100318.75;7349064;19;20574;-47
2024/01/06 02:22:00;;;;;;;8.52;4.70;;;;;;;-2.04;100.00;100320.66;7327742;19;20679;-42
2024/01/06 02:24:30;;;;;;;12.68;6.32;;;;;;;-2.09;100.00;100332.91;7348900;19;20213;-43
2024/01/06 02:27:00;;;;;;;13.48;5.93;;;;;;;-2.11;100.00;100331.88;7328177;19;20810;-43
2024/01/06 02:29:29;;;;;;;16.80;6.78;;;;;;;-2.08;100.00;100337.22;7348503;19;20194;-43
2024/01/06 02:31:59;;;;;;;35.55;12.68;;;;;;;-2.15;100.00;100334.91;7326863;19;20667;-41
2024/01/06 02:34:28;;;;;;;13.10;6.07;;;;;;;-2.15;100.00;100347.56;7348825;19;20671;-42
2024/01/06 02:36:58;;;;;;;14.27;7.15;;;;;;;-2.15;100.00;100346.66;7326869;19;20286;-41
2024/01/06 02:39:30;;;;;;;20.23;8.25;;;;;;;-2.11;100.00;100354.63;7348629;19;20194;-43
2024/01/06 02:42:00;;;;;;;16.63;7.45;;;;;;;-2.16;100.00;100355.88;7327907;19;20233;-43
2024/01/06 02:44:29;;;;;;;11.55;5.85;;;;;;;-2.12;100.00;100367.13;7345680;19;20198;-44
2024/01/06 02:46:59;;;;;;;13.80;6.10;;;;;;;-2.18;100.00;100373.47;7327360;19;20204;-43
2024/01/06 02:49:29;;;;;;;15.68;7.63;;;;;;;-2.10;100.00;100381.69;7347768;19;20699;-42
2024/01/06 02:51:58;;;;;;;14.00;7.43;;;;;;;-2.04;100.00;100383.88;7327633;19;20201;-43
2024/01/06 02:54:30;;;;;;;14.55;7.30;;;;;;;-2.05;100.00;100382.09;7348200;19;20223;-44
2024/01/06 02:57:00;;;;;;;25.17;10.05;;;;;;;-2.00;100.00;100393.47;7326175;19;20234;-41
2024/01/06 02:59:30;;;;;;;14.13;7.10;;;;;;;-2.09;100.00;100395.22;7348138;19;20205;-45
2024/01/06 03:02:00;;;;;;;28.08;11.25;;;;;;;-2.07;100.00;100402.19;7325740;19;20198;-43
2024/01/06 03:04:29;;;;;;;9.88;6.10;;;;;;;-2.12;100.00;100400.91;7348273;19;20236;-43
2024/01/06 03:06:59;;;;;;;14.98;6.90;;;;;;;-2.07;100.00;100402.19;7328727;19;20202;-43
2024/01/06 03:09:31;;;;;;;19.40;8.00;;;;;;;-2.11;100.00;100404.31;7347524;19;20202;-43
2024/01/06 03:12:02;;;;;;;17.25;7.57;;;;;;;-2.13;100.00;100401.66;7326457;19;20202;-43
2024/01/06 03:14:31;;;;;;;12.13;6.20;;;;;;;-2.11;100.00;100406.84;7347768;19;20231;-43
2024/01/06 03:17:02;;;;;;;12.70;6.90;;;;;;;-2.07;100.00;100407.25;7326024;19;20248;-42
2024/01/06 03:19:32;;;;;;;13.30;6.95;;;;;;;-2.05;100.00;100409.91;7348964;19;20197;-42
2024/01/06 03:22:02;;;;;;;16.88;7.30;;;;;;;-2.09;100.00;100408.75;7327430;19;20186;-43
2024/01/06 03:24:34;;;;;;;11.93;6.50;;;;;;;-2.10;100.00;100409.50;7347274;19;20198;-42
2024/01/06 03:27:04;;;;;;;13.30;5.68;;;;;;;-2.17;100.00;100405.56;7326015;19;20549;-42
2024/01/06 03:29:33;;;;;;;12.63;6.35;;;;;;;-2.08;100.00;100397.00;7347503;19;20205;-42
2024/01/06 03:32:03;;;;;;;12.98;5.95;;;;;;;-2.06;100.00;100393.84;7326018;19;20198;-42
2024/01/06 03:34:32;;;;;;;25.48;10.40;;;;;;;-2.02;100.00;100391.59;7346957;19;20206;-43
2024/01/06 03:37:02;;;;;;;14.40;7.15;;;;;;;-2.12;100.00;100383.19;7325768;19;20670;-42
2024/01/06 03:39:34;;;;;;;11.35;5.30;;;;;;;-2.18;100.00;100370.94;7346828;19;20256;-44
2024/01/06 03:42:04;;;;;;;21.10;7.40;;;;;;;-2.09;100.00;100373.38;7325923;19;20223;-42
2024/01/06 03:44:33;;;;;;;13.95;6.53;;;;;;;-2.13;100.00;100363.72;7346650;19;20208;-42
2024/01/06 03:47:03;;;;;;;13.15;6.43;;;;;;;-2.13;100.00;100361.22;7325691;19;20204;-42
2024/01/06 03:49:33;;;;;;;15.52;6.85;;;;;;;-2.13;100.00;100350.19;7346768;19;20248;-45
2024/01/06 03:52:02;;;;;;;11.52;6.57;;;;;;;-2.10;100.00;100341.22;7325635;19;20198;-44
2024/01/06 03:54:35;;;;;;;19.30;8.18;;;;;;;-1.99;100.00;100338.75;7345576;19;20235;-44
2024/01/06 03:57:05;;;;;;;11.95;6.43;;;;;;;-2.06;100.00;100323.03;7325798;19;20201;-41
2024/01/06 03:59:35;;;;;;;15.38;7.10;;;;;;;-2.05;100.00;100314.69;7347120;19;20277;-44
2024/01/06 04:02:04;;;;;;;14.48;6.75;;;;;;;-2.06;100.00;100307.88;7323741;19;20202;-42
2024/01/06 04:04:34;;;;;;;18.42;7.88;;;;;;;-2.02;100.00;100298.03;7346507;19;20260;-43
2024/01/06 04:07:04;;;;;;;12.90;6.90;;;;;;;-2.11;100.00;100299.00;7325598;19;20222;-43
2024/01/06 04:09:37;;;;;;;19.20;8.15;;;;;;;-2.06;100.00;100287.66;7346671;19;20197;-45
2024/01/06 04:12:08;;;;;;;20.92;8.25;;;;;;;-2.05;100.00;100283.50;7325412;19;20675;-43
2024/01/06 04:14:37;;;;;;;15.43;6.55;;;;;;;-2.02;100.00;100273.63;7346185;19;20219;-46
2024/01/06 04:17:07;;;;;;;13.60;7.13;;;;;;;-2.07;100.00;100274.88;7324940;19;20265;-44
2024/01/06 04:19:36;;;;;;;11.85;5.95;;;;;;;-2.06;100.00;100271.56;7344776;19;20266;-42
2024/01/06 04:22:07;;;;;;;11.88;6.00;;;;;;;-2.12;100.00;100266.91;7325313;19;20194;-44
2024/01/06 04:24:40;;;;;;;17.85;7.82;;;;;;;-2.09;100.00;100269.72;7345322;19;20266;-42
2024/01/06 04:27:10;;;;;;;13.77;6.65;;;;;;;-2.14;100.00;100258.31;7324382;19;20198;-45
2024/01/06 04:29:40;;;;;;;42.50;15.13;;;;;;;-2.07;100.00;100270.72;7345516;19;20663;-44
2024/01/06 04:32:09;;;;;;;17.15;8.27;;;;;;;-2.00;100.00;100277.16;7325241;19;20706;-47
2024/01/06 04:34:39;;;;;;;17.75;7.28;;;;;;;-2.04;100.00;100281.06;7345561;19;20565;-45
2024/01/06 04:37:09;;;;;;;26.33;10.05;;;;;;;-1.96;100.00;100269.06;7324580;19;20664;-44
2024/01/06 04:39:41;;;;;;;16.65;6.15;;;;;;;-2.09;100.00;100274.75;7344448;19;20261;-44
2024/01/06 04:42:10;;;;;;;25.45;8.98;;;;;;;-2.05;100.00;100279.31;7325392;19;20690;-45
2024/01/06 04:44:40;;;;;;;12.15;6.35;;;;;;;-2.09;100.00;100284.88;7345326;19;20253;-42
2024/01/06 04:47:10;;;;;;;13.73;6.75;;;;;;;-2.02;100.00;100282.88;7324490;19;20746;-41
2024/01/06 04:49:39;;;;;;;48.35;19.60;;;;;;;-1.95;100.00;100285.16;7346013;19;20209;-44
2024/01/06 04:52:09;;;;;;;24.05;10.00;;;;;;;-1.93;100.00;100298.81;7325097;19;20604;-43
2024/01/06 04:54:41;;;;;;;11.98;6.00;;;;;;;-2.02;100.00;100295.50;7345710;19;20213;-44
2024/01/06 04:57:11;;;;;;;14.25;7.25;;;;;;;-2.12;100.00;100297.25;7325680;19;20220;-43
2024/01/06 04:59:40;;;;;;;14.15;6.57;;;;;;;-2.06;100.00;100292.69;7345675;19;20191;-44
2024/01/06 05:02:10;;;;;;;23.48;8.85;;;;;;;-2.08;100.00;100291.69;7323225;19;20221;-43
2024/01/06 05:04:40;;;;;;;15.70;7.90;;;;;;;-2.08;100.00;100286.63;7346092;19;20206;-45
2024/01/06 05:07:09;;;;;;;20.00;9.02;;;;;;;-2.02;100.00;100295.50;7328584;19;20194;-44
2024/01/06 05:09:41;;;;;;;14.48;7.47;;;;;;;-2.08;100.00;100294.22;7351957;19;20206;-45
2024/01/06 05:12:11;;;;;;;11.75;6.05;;;;;;;-2.05;100.00;100302.06;7332086;19;20555;-46
2024/01/06 05:14:41;;;;;;;15.63;7.88;;;;;;;-1.95;100.00;100300.31;7352159;19;20285;-43
2024/01/06 05:17:11;;;;;;;14.07;6.90;;;;;;;-2.00;100.00;100296.50;7331205;19;20254;-43
2024/01/06 05:19:40;;;;;;;15.75;7.20;;;;;;;-1.97;100.00;100299.28;7351359;19;20671;-44
2024/01/06 05:22:10;;;;;;;16.27;7.90;;;;;;;-1.92;100.00;100300.56;7332292;19;20610;-44
2024/01/06 05:24:42;;;;;;;18.10;8.18;;;;;;;-1.94;100.00;100294.50;7351611;19;20220;-45
2024/01/06 05:27:12;;;;;;;15.15;6.90;;;;;;;-2.00;100.00;100291.47;7331607;19;20193;-41
2024/01/06 05:29:42;;;;;;;15.45;6.80;;;;;;;-1.94;100.00;100291.97;7351634;19;20231;-44
2024/01/06 05:32:12;;;;;;;15.43;6.93;;;;;;;-1.95;100.00;100297.78;7330455;19;20601;-44
2024/01/06 05:34:41;;;;;;;21.33;8.35;;;;;;;-2.00;100.00;100306.63;7351336;19;20249;-43
2024/01/06 05:37:11;;;;;;;20.77;8.05;;;;;;;-2.04;100.00;100306.34;7330448;19;20190;-44
2024/01/06 05:39:43;;;;;;;16.45;7.45;;;;;;;-2.05;100.00;100317.22;7349598;19;20200;-43
2024/01/06 05:42:14;;;;;;;18.27;7.00;;;;;;;-2.01;100.00;100325.09;7330182;19;20203;-44
2024/01/06 05:44:44;;;;;;;14.43;6.25;;;;;;;-2.07;100.00;100335.56;7351382;19;20280;-44
2024/01/06 05:47:13;;;;;;;14.52;6.93;;;;;;;-2.11;100.00;100338.59;7330383;19;20190;-44
2024/01/06 05:49:44;;;;;;;17.02;8.02;;;;;;;-2.09;100.00;100343.03;7350502;19;20190;-44
2024/01/06 05:52:14;;;;;;;14.48;7.40;;;;;;;-2.07;100.00;100345.66;7329839;19;20201;-45
2024/01/06 05:54:46;;;;;;;13.73;6.50;;;;;;;-2.07;100.00;100346.56;7349891;19;20627;-46
2024/01/06 05:57:16;;;;;;;19.48;7.43;;;;;;;-2.04;100.00;100359.44;7329592;19;20210;-43
2024/01/06 05:59:46;;;;;;;20.08;9.35;;;;;;;-1.96;100.00;100367.69;7349182;19;20260;-43
2024/01/06 06:02:15;;;;;;;18.70;7.28;;;;;;;-1.96;100.00;100374.41;7327457;19;20211;-43
2024/01/06 06:04:45;;;;;;;16.35;7.90;;;;;;;-1.96;100.00;100369.34;7349864;19;20225;-41
2024/01/06 06:07:14;;;;;;;12.32;7.10;;;;;;;-2.01;100.00;100383.25;7329462;19;20194;-43
2024/01/06 06:09:47;;;;;;;15.75;6.50;;;;;;;-2.08;100.00;100390.31;7350116;19;20198;-43
2024/01/06 06:12:17;;;;;;;18.63;7.47;;;;;;;-2.00;100.00;100395.13;7330071;19;20191;-44
2024/01/06 06:14:47;;;;;;;19.05;7.75;;;;;;;-2.01;100.00;100406.88;7350630;19;20198;-44
2024/01/06 06:17:16;;;;;;;14.07;7.50;;;;;;;-2.00;100.00;100410.31;7329098;19;20203;-44
2024/01/06 06:19:46;;;;;;;16.15;6.72;;;;;;;-1.98;100.00;100411.31;7349908;19;20297;-43
2024/01/06 06:22:16;;;;;;;13.25;6.43;;;;;;;-2.06;100.00;100413.16;7329298;19;20203;-43
2024/01/06 06:24:48;;;;;;;17.23;7.70;;;;;;;-2.04;100.00;100417.59;7349413;19;20228;-44
2024/01/06 06:27:18;;;;;;;17.20;7.40;;;;;;;-2.05;100.00;100422.56;7329342;19;20202;-44
2024/01/06 06:29:48;;;;;;;15.38;7.18;;;;;;;-2.00;100.00;100417.91;7349842;19;20194;-43
2024/01/06 06:32:17;;;;;;;16.30;7.13;;;;;;;-1.99;100.00;100427.25;7329059;19;20274;-43
2024/01/06 06:34:47;;;;;;;14.90;7.25;;;;;;;-2.15;100.00;100419.97;7349452;19;20201;-44
2024/01/06 06:37:17;;;;;;;18.92;8.82;;;;;;;-2.12;100.00;100428.72;7328881;19;20226;-43
2024/01/06 06:39:49;;;;;;;17.25;8.32;;;;;;;-2.05;100.00;100441.13;7349241;19;20215;-44
2024/01/06 06:42:19;;;;;;;15.63;7.07;;;;;;;-2.04;100.00;100447.97;7328531;19;20758;-43
2024/01/06 06:44:49;;;;;;;15.98;8.00;;;;;;;-1.97;100.00;100456.06;7348459;19;20210;-43
2024/01/06 06:47:19;;;;;;;13.35;7.28;;;;;;;-1.97;100.00;100463.66;7327964;19;20215;-44
2024/01/06 06:49:48;;;;;;;14.75;8.35;;;;;;;-2.16;100.00;100464.56;7348806;19;20202;-45
2024/01/06 06:52:18;;;;;;;17.33;7.10;;;;;;;-2.17;100.00;100475.44;7329593;19;20202;-44
2024/01/06 06:54:52;;;;;;;15.43;7.65;;;;;;;-2.11;100.00;100496.22;7349336;19;20214;-43
2024/01/06 06:57:22;;;;;;;19.40;8.07;;;;;;;-2.10;100.00;100518.22;7329546;19;20206;-45
2024/01/06 06:59:52;;;;;;;17.13;8.07;;;;;;;-2.04;100.00;100533.94;7348077;19;20198;-44
2024/01/06 07:02:23;;;;;;;15.60;8.27;;;;;;;-2.04;100.00;100550.75;7329314;19;20198;-44
2024/01/06 07:04:53;;;;;;;16.23;7.72;;;;;;;-2.09;100.00;100560.47;7351369;19;20209;-42
2024/01/06 07:07:23;;;;;;;26.23;8.73;;;;;;;-2.09;100.00;100575.66;7330474;19;20206;-44
2024/01/06 07:09:55;;;;;;;16.63;7.63;;;;;;;-2.08;100.00;100582.47;7349452;19;20194;-47
2024/01/06 07:12:25;;;;;;;16.10;8.07;;;;;;;-2.07;100.00;100598.53;7330506;19;20195;-44
2024/01/06 07:14:54;;;;;;;18.58;7.22;;;;;;;-2.06;100.00;100606.25;7349442;19;20202;-44
2024/01/06 07:17:24;;;;;;;20.45;9.20;;;;;;;-2.10;100.00;100610.91;7329031;19;20196;-45
2024/01/06 07:19:54;;;;;;;21.02;8.88;;;;;;;-2.09;100.00;100621.16;7347729;19;20679;-44
2024/01/06 07:22:23;;;;;;;14.98;7.32;;;;;;;-2.16;100.00;100626.38;7329710;19;20209;-45
2024/01/06 07:24:56;;;;;;;17.80;8.85;;;;;;;-2.15;100.00;100640.84;7349136;19;20217;-44
2024/01/06 07:27:25;;;;;;;14.88;7.40;;;;;;;-2.23;100.00;100656.91;7328456;19;20201;-44
2024/01/06 07:29:55;;;;;;;18.90;7.80;;;;;;;-2.22;100.00;100668.81;7348590;19;20200;-42
2024/01/06 07:32:25;;;;;;;18.15;7.45;;;;;;;-2.23;100.00;100684.72;7328054;19;20201;-45
2024/01/06 07:34:55;;;;;;;20.25;8.10;;;;;;;-2.19;100.00;100704.50;7348769;19;20231;-44
2024/01/06 07:37:25;;;;;;;16.50;8.48;;;;;;;-2.11;100.00;100723.78;7327462;19;20190;-44
2024/01/06 07:39:57;;;;;;;21.10;9.15;;;;;;;-2.10;100.00;100735.66;7348302;19;20201;-43
2024/01/06 07:42:27;;;;;;;28.73;9.93;;;;;;;-2.10;100.00;100747.44;7327858;19;20224;-45
2024/01/06 07:44:57;;;;;;;23.35;9.90;;;;;;;-2.12;100.00;100749.81;7340561;19;20218;-43
2024/01/06 07:47:26;;;;;;;15.20;6.45;;;;;;;-2.11;100.00;100754.13;7348029;19;20205;-44
2024/01/06 07:49:57;;;;;;;28.23;11.95;;;;;;;-2.11;100.00;100759.19;7345318;19;20265;-44
2024/01/06 07:52:27;;;;;;;15.80;7.95;;;;;;;-2.16;100.00;100760.38;7347955;19;20204;-46
2024/01/06 07:54:59;;;;;;;23.27;9.02;;;;;;;-2.14;100.00;100769.03;7346299;19;20619;-43
2024/01/06 07:57:29;;;;;;;22.80;9.73;;;;;;;-2.15;100.00;100795.06;7347597;19;20580;-42
2024/01/06 07:59:58;;;;;;;23.05;10.20;;;;;;;-2.20;100.00;100804.72;7323624;19;20219;-44
2024/01/06 08:02:32;;;;;;;22.13;9.07;;;;;;;-2.16;100.00;100823.59;7347626;19;20189;-42
2024/01/06 08:05:02;;;;;;;20.15;7.97;;;;;;;-2.12;100.00;100842.47;7325499;19;20206;-43
2024/01/06 08:07:32;;;;;;;16.05;8.65;;;;;;;-2.10;100.00;100843.53;7344998;19;20202;-44
2024/01/06 08:10:05;;;;;;;20.00;8.95;;;;;;;-2.13;100.00;100854.25;7322999;19;20190;-43
2024/01/06 08:12:35;;;;;;;16.85;8.27;;;;;;;-2.11;100.00;100860.31;7347288;19;20260;-41
2024/01/06 08:15:07;;;;;;;23.45;10.18;;;;;;;-2.11;100.00;100864.50;7321488;19;20236;-43
2024/01/06 08:17:37;;;;;;;22.65;9.80;;;;;;;-2.06;100.00;100868.34;7347219;19;20207;-43
2024/01/06 08:20:08;;;;;;;15.43;7.82;;;;;;;-2.09;100.00;100863.91;7323496;19;20579;-42
2024/01/06 08:22:37;;;;;;;19.38;7.90;;;;;;;-2.07;100.00;100862.41;7346407;19;20194;-43
2024/01/06 08:25:10;;;;;;;19.35;7.70;;;;;;;-1.98;100.00;100861.47;7321397;19;20224;-43
2024/01/06 08:27:40;;;;;;;16.80;7.95;;;;;;;-2.04;100.00;100849.16;7338813;19;20190;-45
2024/01/06 08:30:11;;;;;;;19.40;9.52;;;;;;;-2.10;100.00;100841.88;7319723;19;20734;-43
2024/01/06 08:32:41;;;;;;;16.42;7.00;;;;;;;-2.15;100.00;100820.34;7339375;19;20190;-44
2024/01/06 08:35:11;;;;;;;21.23;8.95;;;;;;;-2.09;100.00;100814.97;7318905;19;20206;-44
2024/01/06 08:37:41;;;;;;;15.77;7.50;;;;;;;-2.13;100.00;100785.06;7339225;19;20545;-44
2024/01/06 08:40:16;;;;;;;18.67;7.75;;;;;;;-2.18;100.00;100769.47;7319083;19;20198;-43
2024/01/06 08:42:46;;;;;;;11.27;6.30;;;;;;;-2.20;100.00;100760.88;7344210;19;20259;-43
2024/01/06 08:45:16;;;;;;;18.80;7.65;;;;;;;-2.23;100.00;100750.47;7325737;19;20227;-45
2024/01/06 08:47:45;;;;;;;15.88;7.22;;;;;;;-2.19;100.00;100750.00;7345762;19;20190;-45
2024/01/06 08:50:15;;;;;;;20.73;7.28;;;;;;;-2.14;100.00;100751.34;7325605;19;20214;-44
2024/01/06 08:52:44;;;;;;;18.45;8.82;;;;;;;-2.14;100.00;100748.81;7346911;19;20221;-43
2024/01/06 08:55:17;;;;;;;18.27;7.53;;;;;;;-2.11;100.00;100754.13;7324510;19;20204;-44
2024/01/06 08:57:46;;;;;;;16.05;7.47;;;;;;;-2.15;100.00;100741.97;7345231;19;20190;-45
2024/01/06 09:00:17;;;;;;;13.80;6.63;;;;;;;-2.14;100.00;100750.44;7322218;19;20196;-43
2024/01/06 09:02:47;;;;;;;19.42;8.18;;;;;;;-2.16;100.00;100757.84;7346777;19;20198;-44
2024/01/06 09:05:17;;;;;;;19.20;8.27;;;;;;;-2.13;100.00;100759.78;7326772;19;20199;-44
2024/01/06 09:07:49;;;;;;;16.80;6.90;;;;;;;-2.12;100.00;100766.63;7347699;19;20190;-43
2024/01/06 09:10:27;;;;;;;15.57;7.53;;;;;;;-2.20;100.00;100769.34;7326252;19;21683;-49
2024/01/06 09:12:55;;;;;;;17.40;7.15;;;;;;;-2.27;100.00;100774.56;7339624;19;20197;-42
2024/01/06 09:15:24;;;;;;;14.43;7.32;;;;;;;-2.21;100.00;100776.78;7346979;19;20587;-44
2024/01/06 09:17:54;;;;;;;18.63;8.02;;;;;;;-2.21;100.00;100781.84;7345404;19;20269;-42
2024/01/06 09:20:24;;;;;;;19.02;7.70;;;;;;;-2.15;100.00;100792.53;7325785;19;20198;-44
2024/01/06 09:22:53;;;;;;;29.85;11.57;;;;;;;-2.16;100.00;100803.38;7346152;19;20211;-44
2024/01/06 09:25:25;;;;;;;16.38;7.75;;;;;;;-2.16;100.00;100810.97;7322495;19;20202;-45
2024/01/06 09:27:55;;;;;;;25.98;9.40;;;;;;;-2.17;100.00;100810.09;7345343;19;20211;-43
2024/01/06 09:30:25;;;;;;;37.65;13.20;;;;;;;-2.05;100.00;100805.28;7324179;19;20194;-43
2024/01/06 09:32:55;;;;;;;17.23;8.00;;;;;;;-1.98;100.00;100801.69;7346432;19;20548;-44
2024/01/06 09:35:25;;;;;;;24.50;9.40;;;;;;;-1.97;100.00;100805.09;7324801;19;20831;-43
2024/01/06 09:37:55;;;;;;;27.17;11.65;;;;;;;-1.93;100.00;100799.56;7345704;19;20250;-45
2024/01/06 09:40:27;;;;;;;20.10;7.65;;;;;;;-1.99;100.00;100794.84;7324946;19;20201;-44
2024/01/06 09:42:57;;;;;;;17.05;8.27;;;;;;;-1.94;100.00;100788.56;7343470;19;20198;-43
2024/01/06 09:45:26;;;;;;;18.52;7.90;;;;;;;-2.04;100.00;100785.94;7346609;19;20275;-45
2024/01/06 09:47:57;;;;;;;20.20;9.32;;;;;;;-1.94;100.00;100786.03;7343494;19;20186;-42
2024/01/06 09:50:27;;;;;;;19.52;8.13;;;;;;;-1.90;100.00;100782.13;7322947;19;20190;-42
2024/01/06 09:53:05;;;;;;;16.85;7.18;;;;;;;-1.97;100.00;100767.16;7333968;19;20262;-43
2024/01/06 09:55:38;;;;;;;27.60;11.55;;;;;;;-1.91;100.00;100758.50;7343329;19;20671;-44
2024/01/06 09:58:07;;;;;;;22.15;8.43;;;;;;;-1.81;100.00;100750.13;7322485;19;20201;-43
2024/01/06 10:00:37;;;;;;;13.60;7.15;;;;;;;-1.79;100.00;100737.63;7342921;19;20194;-42
2024/01/06 10:03:07;;;;;;;20.58;7.68;;;;;;;-1.79;100.00;100728.38;7322217;19;20261;-43
2024/01/06 10:05:38;;;;;;;17.02;8.13;;;;;;;-1.79;100.00;100718.25;7343489;19;20198;-44
2024/01/06 10:08:08;;;;;;;18.40;7.93;;;;;;;-1.74;100.00;100712.72;7323216;19;20190;-42
2024/01/06 10:10:40;;;;;;;18.77;8.18;;;;;;;-1.80;100.00;100706.34;7344332;19;20241;-44
2024/01/06 10:13:10;;;;;;;17.38;8.25;;;;;;;-1.84;100.00;100711.88;7323578;19;20281;-42
2024/01/06 10:15:40;;;;;;;17.25;7.65;;;;;;;-1.88;100.00;100707.31;7344203;19;21348;-42
2024/01/06 10:18:09;;;;;;;15.75;7.28;;;;;;;-1.85;100.00;100710.09;7322290;19;20190;-44
2024/01/06 10:20:39;;;;;;;17.17;8.30;;;;;;;-1.77;100.00;100710.81;7343726;19;20683;-44
2024/01/06 10:23:09;;;;;;;24.85;8.60;;;;;;;-1.80;100.00;100708.88;7323048;19;20192;-44
2024/01/06 10:25:42;;;;;;;21.83;8.18;;;;;;;-1.78;100.00;100707.38;7343958;19;20220;-46
2024/01/06 10:28:14;;;;;;;17.70;6.57;;;;;;;-1.69;100.00;100711.50;7322889;19;20186;-43
2024/01/06 10:30:43;;;;;;;30.80;10.63;;;;;;;-1.68;100.00;100710.75;7343813;19;20194;-45
2024/01/06 10:33:13;;;;;;;16.10;6.95;;;;;;;-1.62;100.00;100716.34;7322965;19;20707;-42
2024/01/06 10:35:44;;;;;;;16.67;7.93;;;;;;;-1.70;100.00;100708.06;7342768;19;20539;-45
2024/01/06 10:38:15;;;;;;;21.00;8.45;;;;;;;-1.69;100.00;100703.91;7321619;19;20186;-42
2024/01/06 10:40:58;;;;;;;16.90;6.90;;;;;;;-1.73;100.00;100706.91;7343227;19;20198;-41
2024/01/06 10:43:29;;;;;;;16.40;7.05;;;;;;;-1.72;100.00;100706.16;7323141;19;20257;-43
2024/01/06 10:46:04;;;;;;;15.10;6.78;;;;;;;-1.74;100.00;100708.56;7321697;19;20298;-42
2024/01/06 10:48:38;;;;;;;14.50;6.70;;;;;;;-1.78;100.00;100707.38;7348284;19;20276;-43
2024/01/06 10:51:08;;;;;;;17.50;7.20;;;;;;;-1.76;100.00;100712.56;7328774;19;20260;-43
2024/01/06 10:53:39;;;;;;;14.18;6.10;;;;;;;-1.78;100.00;100720.00;7349295;19;20277;-44
2024/01/06 10:56:12;;;;;;;12.20;6.20;;;;;;;-1.75;100.00;100716.00;7328383;19;20190;-45
2024/01/06 10:58:50;;;;;;;10.90;5.85;;;;;;;-1.78;100.00;100725.06;7347535;19;20266;-43
2024/01/06 11:01:24;;;;;;;13.70;6.10;;;;;;;-1.72;100.00;100726.38;7325746;19;20216;-42
2024/01/06 11:03:58;;;;;;;18.65;7.45;;;;;;;-1.66;100.00;100737.06;7328195;19;20679;-42
2024/01/06 11:06:29;;;;;;;12.60;5.82;;;;;;;-1.75;100.00;100723.59;7348113;19;20270;-43
2024/01/06 11:09:02;;;;;;;56.42;16.13;;;;;;;-1.66;100.00;100729.47;7326588;19;20194;-43
2024/01/06 11:11:34;;;;;;;20.80;7.50;;;;;;;-1.69;100.00;100724.16;7349264;19;20198;-43
2024/01/06 11:14:22;;;;;;;15.05;6.50;;;;;;;-1.67;100.00;100723.53;7326220;19;20730;-42
2024/01/06 11:16:52;;;;;;;21.20;8.65;;;;;;;-1.68;100.00;100725.94;7343399;19;20182;-43
2024/01/06 11:19:54;;;;;;;10.40;5.20;;;;;;;-1.76;100.00;100730.28;7322269;19;20197;-42
2024/01/06 11:22:31;;;;;;;11.38;5.40;;;;;;;-1.71;100.00;100726.53;7321569;19;20194;-44
2024/01/06 11:25:07;;;;;;;10.63;5.13;;;;;;;-1.70;100.00;100740.09;7320019;19;20198;-43